Time;durP1;ratioP1;P1;durP2;ratioP2;P2;SDS_P1;SDS_P2;PMS_P1;PMS_P2;Temp;Humidity;BMP_temperature;BMP_pressure;BME280_temperature;BME280_humidity;BME280_pressure;Samples;Min_cycle;Max_cycle;Signal;HPM_P1;HPM_P2
2022/12/10 00:01:17;;;;;;;;;60.67;47.67;;;;;5.53;65.13;100440.75;5057302;28;45555;-71
2022/12/10 00:03:44;;;;;;;;;56.67;48.00;;;;;5.43;65.48;100432.16;5056537;28;46221;-74
2022/12/10 00:06:18;;;;;;;;;68.00;53.33;;;;;5.33;65.89;100436.88;5056661;28;45284;-73
2022/12/10 00:08:44;;;;;;;;;61.00;51.33;;;;;5.23;65.88;100434.53;5022012;28;45292;-73
2022/12/10 00:11:11;;;;;;;;;54.67;46.00;;;;;5.25;66.51;100435.38;5056628;28;45559;-72
2022/12/10 00:13:37;;;;;;;;;61.67;49.67;;;;;5.38;66.08;100434.06;5054951;28;45482;-73
2022/12/10 00:16:04;;;;;;;;;64.67;52.00;;;;;5.18;66.20;100399.25;5056772;28;45326;-72
2022/12/10 00:18:30;;;;;;;;;58.00;48.33;;;;;5.35;66.26;100446.59;5056553;28;45563;-73
2022/12/10 00:20:56;;;;;;;;;59.33;47.00;;;;;5.33;66.37;100442.19;5056600;28;45545;-74
2022/12/10 00:23:21;;;;;;;;;70.33;52.33;;;;;5.32;66.16;100448.44;5056262;28;45272;-73
2022/12/10 00:25:47;;;;;;;;;58.33;46.33;;;;;5.34;66.11;100451.06;5056524;28;45263;-73
2022/12/10 00:28:12;;;;;;;;;59.67;47.00;;;;;5.32;65.83;100445.78;5056629;28;45244;-74
2022/12/10 05:32:15;;;;;;;;;20.75;12.50;;;;;5.90;61.08;100573.53;5040623;27;45380;-73
2022/12/10 05:34:41;;;;;;;;;30.00;22.75;;;;;5.91;61.62;100583.25;5040669;28;45352;-72
2022/12/10 05:37:06;;;;;;;;;25.50;20.00;;;;;5.89;61.61;100590.41;5055463;28;45284;-73
2022/12/10 05:39:31;;;;;;;;;29.00;24.50;;;;;5.79;62.05;100576.44;5055252;28;46350;-73
2022/12/10 05:41:57;;;;;;;;;28.75;23.25;;;;;5.91;62.26;100591.22;5055802;28;46707;-73
2022/12/10 05:44:22;;;;;;;;;29.00;24.50;;;;;5.78;61.96;100573.88;5055185;28;45349;-73
2022/12/10 05:46:47;;;;;;;;;28.75;26.50;;;;;5.87;62.62;100598.38;5054330;28;45331;-74
2022/12/10 05:49:13;;;;;;;;;32.25;28.00;;;;;5.81;62.75;100611.88;5036526;28;47275;-72
2022/12/10 05:51:38;;;;;;;;;34.00;28.25;;;;;5.77;63.40;100620.88;5055185;28;45326;-73
2022/12/10 05:54:06;;;;;;;;;29.50;25.00;;;;;5.61;63.84;100615.06;5055083;28;45719;-72
2022/12/10 05:56:31;;;;;;;;;36.25;29.25;;;;;5.67;64.23;100622.91;5055233;28;45319;-72
2022/12/10 05:59:00;;;;;;;;;29.75;28.00;;;;;5.60;63.79;100609.81;5054656;28;45560;-74
2022/12/10 06:01:28;;;;;;;;;33.75;28.00;;;;;5.67;64.20;100612.28;5054768;28;45343;-73
2022/12/10 06:03:54;;;;;;;;;34.50;29.50;;;;;5.69;63.78;100607.78;5055171;28;45227;-74
2022/12/10 06:06:27;;;;;;;;;28.00;24.50;;;;;5.69;63.80;100614.88;5054794;28;45319;-74
2022/12/10 06:08:53;;;;;;;;;31.50;29.25;;;;;5.60;63.76;100605.38;5036633;28;47139;-73
2022/12/10 06:11:19;;;;;;;;;29.25;27.00;;;;;5.47;63.48;100585.34;5055019;28;45289;-73
2022/12/10 06:13:44;;;;;;;;;28.25;26.00;;;;;5.66;63.71;100620.28;5052716;28;45401;-74
2022/12/10 06:16:12;;;;;;;;;23.00;22.75;;;;;5.62;63.26;100614.16;5054892;28;45454;-72
2022/12/10 06:18:38;;;;;;;;;20.00;19.50;;;;;5.73;63.43;100619.19;5054524;28;45411;-71
2022/12/10 06:21:09;;;;;;;;;29.00;27.25;;;;;5.70;63.17;100619.25;5054853;28;45296;-74
2022/12/10 06:23:35;;;;;;;;;29.50;29.25;;;;;5.58;62.51;100620.50;5054880;28;45323;-74
2022/12/10 06:26:13;;;;;;;;;35.00;31.50;;;;;5.55;63.59;100627.69;5054619;28;45433;-74
2022/12/10 06:28:39;;;;;;;;;29.00;28.25;;;;;5.67;63.41;100638.88;5054587;28;45381;-73
2022/12/10 06:31:05;;;;;;;;;24.25;23.00;;;;;5.56;63.33;100622.31;5054518;28;45405;-74
2022/12/10 06:33:31;;;;;;;;;31.25;27.25;;;;;5.69;63.39;100639.69;5066338;28;45467;-73
2022/12/10 06:35:56;;;;;;;;;24.25;22.25;;;;;5.72;63.06;100642.25;5036312;28;45482;-74
2022/12/10 06:38:22;;;;;;;;;35.00;28.75;;;;;5.58;63.17;100647.09;5054600;28;46143;-74
2022/12/10 06:40:47;;;;;;;;;31.75;27.75;;;;;5.58;63.59;100648.88;5054596;28;45212;-75
2022/12/10 06:43:12;;;;;;;;;26.25;22.75;;;;;5.59;64.24;100646.19;5054697;28;45413;-74
2022/12/10 06:45:40;;;;;;;;;24.00;22.75;;;;;5.61;63.67;100646.97;5057161;28;45387;-74
2022/12/10 06:48:05;;;;;;;;;22.25;19.75;;;;;5.64;62.52;100654.91;5058716;28;45351;-74
2022/12/10 06:50:31;;;;;;;;;20.25;19.50;;;;;5.61;62.55;100648.81;5041149;28;45876;-78
2022/12/10 06:52:56;;;;;;;;;22.50;20.75;;;;;5.65;62.49;100647.78;5059095;28;45314;-74
2022/12/10 06:55:22;;;;;;;;;24.00;22.25;;;;;5.69;62.96;100658.31;5059182;28;45344;-72
2022/12/10 06:57:51;;;;;;;;;20.75;18.25;;;;;5.79;62.59;100658.03;5058480;28;46079;-74
2022/12/10 07:00:17;;;;;;;;;26.25;20.00;;;;;5.77;62.21;100662.56;5057710;28;45335;-75
2022/12/10 07:02:42;;;;;;;;;21.00;20.00;;;;;5.75;62.01;100657.28;5058140;28;45602;-75
2022/12/10 07:05:08;;;;;;;;;27.50;23.00;;;;;5.62;62.45;100630.13;5058398;28;45472;-77
2022/12/10 07:07:34;;;;;;;;;23.25;20.00;;;;;5.75;62.01;100670.56;5039601;28;47006;-75
2022/12/10 07:10:00;;;;;;;;;24.00;21.00;;;;;5.77;61.94;100678.50;5057637;28;45356;-76
2022/12/10 07:12:25;;;;;;;;;23.25;21.25;;;;;5.70;62.08;100668.00;5057997;28;45408;-75
2022/12/10 07:14:50;;;;;;;;;21.25;20.75;;;;;5.71;62.15;100666.22;5055168;28;45213;-74
2022/12/10 07:17:16;;;;;;;;;16.00;16.00;;;;;5.64;62.35;100649.56;5057770;28;46237;-76
2022/12/10 07:19:41;;;;;;;;;20.75;19.50;;;;;5.88;61.89;100684.41;5039419;28;45210;-77
2022/12/10 07:22:06;;;;;;;;;22.50;21.25;;;;;5.82;62.27;100668.59;5057512;28;45466;-73
2022/12/10 07:24:32;;;;;;;;;20.00;16.25;;;;;5.92;62.22;100691.41;5057422;28;45446;-74
2022/12/10 07:26:57;;;;;;;;;22.50;18.75;;;;;5.86;62.29;100687.13;5057202;28;45394;-75
2022/12/10 07:29:26;;;;;;;;;20.75;20.00;;;;;5.93;61.98;100690.50;5057232;28;45563;-76
2022/12/10 07:31:51;;;;;;;;;32.50;23.50;;;;;6.00;61.65;100708.03;5062273;28;45438;-75
2022/12/10 07:34:17;;;;;;;;;31.50;24.00;;;;;5.94;61.71;100695.78;5063445;28;45441;-75
2022/12/10 07:36:43;;;;;;;;;24.75;22.00;;;;;5.98;62.33;100700.09;5057686;28;45351;-75
2022/12/10 07:39:10;;;;;;;;;24.75;22.75;;;;;5.97;62.03;100700.13;5057180;28;45319;-76
2022/12/10 07:41:35;;;;;;;;;27.00;20.25;;;;;5.96;62.38;100691.28;5039234;28;45210;-74
2022/12/10 07:44:02;;;;;;;;;26.25;25.25;;;;;5.96;62.04;100690.41;5056789;28;45379;-75
2022/12/10 07:46:31;;;;;;;;;23.75;20.25;;;;;6.03;61.41;100705.31;5057455;28;45477;-76
2022/12/10 07:48:59;;;;;;;;;25.75;22.75;;;;;6.02;61.70;100707.09;5057141;28;45378;-77
2022/12/10 07:51:24;;;;;;;;;23.75;17.75;;;;;6.03;61.44;100715.94;5057511;28;45243;-76
2022/12/10 07:53:54;;;;;;;;;23.50;22.00;;;;;5.99;61.76;100715.16;5057060;28;45387;-76
2022/12/10 07:56:22;;;;;;;;;26.25;24.75;;;;;5.99;62.06;100723.13;5039108;28;45403;-77
2022/12/10 07:58:51;;;;;;;;;19.00;15.75;;;;;5.98;61.77;100718.72;5059685;28;45411;-78
2022/12/10 08:01:24;;;;;;;;;23.00;23.00;;;;;5.64;62.09;100672.63;5039618;28;45396;-81
2022/12/10 08:03:51;;;;;;;;;26.75;23.00;;;;;5.85;62.25;100713.75;5057141;28;45422;-81
2022/12/10 08:06:19;;;;;;;;;20.00;20.00;;;;;5.73;62.27;100717.59;5056448;28;45497;-76
2022/12/10 08:08:46;;;;;;;;;24.25;22.00;;;;;5.78;62.22;100729.03;5060347;28;45344;-74
2022/12/10 08:11:13;;;;;;;;;21.50;16.25;;;;;5.74;62.56;100734.44;5038793;28;45497;-71
2022/12/10 08:13:38;;;;;;;;;22.00;19.25;;;;;5.71;63.00;100735.38;5054706;28;45498;-72
2022/12/10 08:16:14;;;;;;;;;22.25;20.75;;;;;5.71;63.34;100740.69;5056679;28;45232;-71
2022/12/10 08:18:40;;;;;;;;;29.00;22.00;;;;;5.66;63.17;100739.97;5056369;28;45361;-72
2022/12/10 08:21:08;;;;;;;;;29.25;18.25;;;;;5.61;62.83;100753.38;5021794;28;45369;-74
2022/12/10 08:23:34;;;;;;;;;22.75;19.75;;;;;5.50;63.32;100746.59;5056335;28;45500;-74
2022/12/10 08:26:07;;;;;;;;;20.50;15.00;;;;;5.52;63.29;100760.72;5056648;28;46009;-74
2022/12/10 08:28:33;;;;;;;;;21.25;20.25;;;;;5.41;63.10;100745.03;5056413;28;45405;-71
2022/12/10 08:30:58;;;;;;;;;22.00;20.25;;;;;5.45;63.20;100759.09;5038435;28;45518;-74
2022/12/10 08:33:24;;;;;;;;;17.00;15.50;;;;;5.51;63.78;100769.63;5068051;28;45367;-77
2022/12/10 08:35:49;;;;;;;;;22.75;19.25;;;;;5.54;63.36;100772.16;5057236;28;45396;-73
2022/12/10 08:38:15;;;;;;;;;24.50;19.75;;;;;5.55;63.18;100779.25;5056403;28;45378;-74
2022/12/10 08:40:41;;;;;;;;;19.75;18.00;;;;;5.54;62.72;100773.03;5038561;28;45626;-75
2022/12/10 08:43:07;;;;;;;;;23.25;20.75;;;;;5.53;63.18;100773.13;5055919;28;45556;-70
2022/12/10 08:45:33;;;;;;;;;22.50;20.00;;;;;5.42;62.83;100754.75;5056491;28;45992;-76
2022/12/10 08:48:01;;;;;;;;;23.00;21.00;;;;;5.57;62.58;100770.31;5056135;28;45360;-76
2022/12/10 08:50:26;;;;;;;;;22.25;20.25;;;;;5.59;62.86;100781.81;5056975;28;45224;-78
2022/12/10 08:52:53;;;;;;;;;19.25;15.75;;;;;5.58;62.49;100763.22;5056457;28;45375;-74
2022/12/10 08:55:18;;;;;;;;;21.00;17.75;;;;;5.64;62.77;100774.56;5056744;28;45427;-73
2022/12/10 08:57:44;;;;;;;;;17.25;17.25;;;;;5.63;62.87;100769.28;5056567;28;45327;-74
2022/12/10 09:00:10;;;;;;;;;21.75;19.50;;;;;5.60;62.47;100770.25;5057580;28;45520;-75
2022/12/10 09:02:35;;;;;;;;;19.75;19.25;;;;;5.70;62.29;100793.03;5057988;28;45402;-73
2022/12/10 09:05:01;;;;;;;;;22.00;20.00;;;;;5.68;62.98;100776.25;5058036;28;46128;-75
2022/12/10 09:07:26;;;;;;;;;27.50;23.50;;;;;5.75;62.97;100792.94;5040010;28;45420;-74
2022/12/10 09:09:52;;;;;;;;;27.00;24.25;;;;;5.69;62.57;100798.41;5058813;28;45372;-74
2022/12/10 09:12:17;;;;;;;;;24.75;20.75;;;;;5.57;63.06;100788.94;5056597;28;45424;-75
2022/12/10 09:14:42;;;;;;;;;23.00;22.00;;;;;5.39;63.71;100792.03;5054422;28;45401;-74
2022/12/10 09:17:08;;;;;;;;;25.25;25.25;;;;;5.38;64.32;100808.03;5055416;28;45224;-73
2022/12/10 09:19:34;;;;;;;;;23.50;19.50;;;;;5.31;64.08;100802.84;5050364;28;45644;-72
2022/12/10 09:22:00;;;;;;;;;25.75;24.00;;;;;5.34;64.31;100801.91;5053654;28;45328;-74
2022/12/10 09:24:27;;;;;;;;;25.75;24.00;;;;;5.34;64.24;100804.59;5054445;28;46023;-75
2022/12/10 09:26:52;;;;;;;;;35.25;27.50;;;;;5.19;64.19;100803.13;5041908;28;45327;-74
2022/12/10 09:29:17;;;;;;;;;26.75;23.50;;;;;5.07;64.61;100797.25;5055461;28;45542;-74
2022/12/10 09:31:43;;;;;;;;;29.50;25.50;;;;;5.13;64.50;100791.78;5041314;28;45916;-75
2022/12/10 09:34:08;;;;;;;;;26.00;22.00;;;;;5.15;64.31;100814.75;5061688;28;45326;-74
2022/12/10 09:36:33;;;;;;;;;29.75;25.25;;;;;5.12;64.32;100803.31;5055269;28;45373;-73
2022/12/10 09:38:59;;;;;;;;;37.00;27.75;;;;;5.04;64.66;100791.97;5055390;28;45364;-75
2022/12/10 09:41:55;;;;;;;;;28.75;21.75;;;;;5.26;64.84;100811.88;5055360;28;45458;-74
2022/12/10 09:44:39;;;;;;;;;33.00;22.25;;;;;5.29;64.45;100814.44;5054756;28;45452;-72
2022/12/10 09:47:08;;;;;;;;;28.50;25.00;;;;;5.18;64.46;100805.84;5055128;28;45355;-73
2022/12/10 09:49:52;;;;;;;;;30.00;26.00;;;;;5.19;64.68;100816.41;5037246;28;45474;-75
2022/12/10 09:52:23;;;;;;;;;27.00;24.25;;;;;5.18;64.52;100812.03;5054859;28;45451;-74
2022/12/10 09:54:54;;;;;;;;;34.00;27.50;;;;;5.27;64.17;100816.28;5054898;28;45566;-75
2022/12/10 09:57:28;;;;;;;;;35.50;28.50;;;;;5.19;64.66;100802.28;5055062;28;45547;-74
2022/12/10 09:59:54;;;;;;;;;23.25;19.75;;;;;5.35;64.18;100819.63;5055066;28;45552;-73
2022/12/10 10:02:21;;;;;;;;;29.75;27.25;;;;;5.45;63.99;100826.44;5020035;28;45539;-74
2022/12/10 10:04:49;;;;;;;;;33.25;26.50;;;;;5.42;64.23;100821.22;5054829;28;46145;-75
2022/12/10 10:07:24;;;;;;;;;27.75;25.50;;;;;5.52;63.45;100813.91;5054758;28;45306;-74
2022/12/10 10:09:56;;;;;;;;;33.25;29.25;;;;;5.60;63.22;100819.91;5055094;28;45357;-74
2022/12/10 10:12:21;;;;;;;;;25.75;25.00;;;;;5.60;63.38;100809.28;5054723;28;45534;-73
2022/12/10 10:14:47;;;;;;;;;28.25;25.50;;;;;5.76;63.37;100817.75;5051991;28;45472;-75
2022/12/10 10:17:16;;;;;;;;;26.75;24.75;;;;;5.75;63.38;100816.88;5054885;28;45383;-75
2022/12/10 10:19:44;;;;;;;;;31.25;26.50;;;;;5.76;63.12;100807.09;5054687;28;45328;-73
2022/12/10 10:22:11;;;;;;;;;32.25;28.25;;;;;5.83;62.24;100809.56;5053518;28;45232;-75
2022/12/10 10:24:45;;;;;;;;;33.25;28.00;;;;;5.95;61.86;100819.06;5054425;28;46092;-73
2022/12/10 10:27:15;;;;;;;;;28.50;26.25;;;;;5.89;61.70;100812.09;5055021;28;45228;-71
2022/12/10 10:29:45;;;;;;;;;28.50;26.50;;;;;5.79;62.26;100807.88;5055136;28;45407;-71
2022/12/10 10:32:20;;;;;;;;;35.25;30.75;;;;;5.78;61.50;100806.16;5061502;28;45525;-74
2022/12/10 10:34:52;;;;;;;;;27.75;27.75;;;;;5.60;62.08;100783.56;5056608;28;46228;-75
2022/12/10 10:37:40;;;;;;;;;24.75;23.25;;;;;5.89;62.05;100821.84;5054660;28;45335;-75
2022/12/10 10:40:20;;;;;;;;;23.50;23.50;;;;;5.92;61.78;100812.03;5054655;28;45545;-73
2022/12/10 10:42:46;;;;;;;;;31.25;28.00;;;;;6.00;61.23;100819.81;5054095;28;45880;-74
2022/12/10 10:45:30;;;;;;;;;30.50;25.00;;;;;5.97;61.77;100823.41;5054911;28;45608;-71
2022/12/10 10:48:12;;;;;;;;;31.00;25.00;;;;;5.94;61.26;100823.50;5054621;28;45418;-74
2022/12/10 10:50:55;;;;;;;;;29.50;25.00;;;;;5.72;61.17;100779.69;5047682;28;45363;-74
2022/12/10 10:53:29;;;;;;;;;28.75;25.00;;;;;5.92;61.45;100824.44;5053844;28;45566;-74
2022/12/10 10:55:57;;;;;;;;;12.25;10.75;;;;;5.97;61.05;100814.56;5054571;28;46362;-75
2022/12/10 10:58:24;;;;;;;;;30.75;25.25;;;;;5.88;60.41;100814.78;5054336;28;45474;-74
2022/12/10 11:01:07;;;;;;;;;26.50;20.75;;;;;5.99;60.93;100823.38;5037243;28;45487;-74
2022/12/10 11:03:36;;;;;;;;;35.00;30.75;;;;;6.00;60.86;100811.81;5054884;28;45510;-73
2022/12/10 11:06:07;;;;;;;;;30.00;27.75;;;;;6.11;60.39;100819.53;5048889;28;46183;-74
2022/12/10 11:08:37;;;;;;;;;31.00;26.50;;;;;6.07;60.28;100808.09;5056379;28;45373;-73
2022/12/10 11:11:05;;;;;;;;;28.25;23.50;;;;;6.34;59.91;100835.75;5050092;28;45247;-74
2022/12/10 11:13:35;;;;;;;;;26.75;24.25;;;;;6.39;59.83;100813.41;5049096;28;45427;-74
2022/12/10 11:16:12;;;;;;;;;27.50;24.50;;;;;6.58;59.65;100834.19;5053355;28;46209;-76
2022/12/10 11:18:41;;;;;;;;;31.50;25.00;;;;;6.69;59.21;100821.47;5051378;28;46064;-75
2022/12/10 11:21:06;;;;;;;;;35.75;28.25;;;;;6.72;58.97;100829.38;5053931;28;45421;-74
2022/12/10 11:23:39;;;;;;;;;24.25;23.00;;;;;6.69;59.25;100818.78;5053909;28;45577;-75
2022/12/10 11:26:07;;;;;;;;;34.50;24.75;;;;;6.73;59.20;100825.78;5053654;28;46653;-74
2022/12/10 11:28:37;;;;;;;;;29.00;24.25;;;;;6.81;59.38;100824.63;5035591;28;46184;-74
2022/12/10 11:31:16;;;;;;;;;29.50;25.75;;;;;6.90;58.58;100809.28;5053825;28;45378;-73
2022/12/10 11:33:47;;;;;;;;;28.50;27.50;;;;;6.91;58.53;100795.91;5063395;28;45178;-75
2022/12/10 11:36:25;;;;;;;;;29.50;25.00;;;;;7.14;58.89;100803.25;5053285;28;45403;-74
2022/12/10 11:39:02;;;;;;;;;25.75;24.75;;;;;7.24;58.02;100796.66;5035600;28;45445;-75
2022/12/10 11:41:46;;;;;;;;;24.75;22.00;;;;;7.39;57.82;100801.53;5053772;28;45454;-74
2022/12/10 11:44:33;;;;;;;;;18.50;18.50;;;;;7.39;57.58;100806.88;5051757;28;46045;-75
2022/12/10 11:47:32;;;;;;;;;32.50;23.00;;;;;7.44;57.01;100807.59;5056438;28;46135;-73
2022/12/10 11:50:09;;;;;;;;;23.00;23.00;;;;;7.37;57.88;100805.19;5057226;28;45510;-72
2022/12/10 11:53:12;;;;;;;;;28.50;26.00;;;;;7.40;57.50;100810.41;5039388;28;45461;-75
2022/12/10 11:56:19;;;;;;;;;33.25;29.25;;;;;7.36;57.39;100809.63;5056895;28;45463;-74
2022/12/10 11:59:07;;;;;;;;;27.25;25.75;;;;;7.24;57.43;100812.66;5056415;28;46690;-72
2022/12/10 12:02:26;;;;;;;;;25.50;24.25;;;;;7.21;57.74;100810.13;5056964;28;45359;-74
2022/12/10 12:05:16;;;;;;;;;30.75;26.75;;;;;7.14;57.41;100806.78;4975298;28;45571;-75
2022/12/10 12:07:53;;;;;;;;;25.00;24.75;;;;;7.07;57.69;100798.97;5057104;28;45356;-74
2022/12/10 12:10:21;;;;;;;;;25.25;22.75;;;;;7.01;57.75;100808.06;5056749;28;45343;-74
2022/12/10 12:13:12;;;;;;;;;32.75;26.00;;;;;6.95;58.20;100815.38;5056890;28;45535;-75
2022/12/10 12:15:57;;;;;;;;;25.50;24.25;;;;;6.92;58.48;100803.00;5030521;28;45366;-74
2022/12/10 12:18:40;;;;;;;;;30.00;25.50;;;;;6.70;58.40;100792.13;5056598;28;45935;-72
2022/12/10 12:21:10;;;;;;;;;23.00;20.75;;;;;6.81;58.54;100815.75;5056823;28;45247;-72
2022/12/10 12:23:58;;;;;;;;;27.50;21.50;;;;;6.79;58.66;100812.28;5056714;28;45383;-74
2022/12/10 12:26:31;;;;;;;;;26.25;22.75;;;;;6.69;58.99;100808.13;5056609;28;45418;-73
2022/12/10 12:29:16;;;;;;;;;25.00;23.00;;;;;6.60;58.82;100811.94;5038492;28;46504;-75
2022/12/10 12:31:46;;;;;;;;;23.00;22.00;;;;;6.57;59.05;100809.34;5060036;28;45379;-75
2022/12/10 12:34:26;;;;;;;;;21.00;18.00;;;;;6.60;59.05;100805.75;5063772;28;45554;-74
2022/12/10 12:36:53;;;;;;;;;23.25;20.75;;;;;6.56;58.65;100785.41;5056693;28;45491;-74
2022/12/10 12:39:43;;;;;;;;;26.25;22.00;;;;;6.72;58.63;100811.56;5056696;28;45252;-74
2022/12/10 12:42:20;;;;;;;;;27.00;24.75;;;;;6.87;58.73;100802.28;5056425;28;46095;-75
2022/12/10 12:45:02;;;;;;;;;20.75;20.50;;;;;7.07;58.21;100806.97;5056212;28;45327;-74
2022/12/10 12:47:52;;;;;;;;;20.00;17.75;;;;;7.05;56.89;100806.19;5039744;28;45356;-76
2022/12/10 12:50:29;;;;;;;;;19.75;17.25;;;;;7.11;57.66;100808.66;5057166;28;45371;-74
2022/12/10 12:53:02;;;;;;;;;23.25;17.50;;;;;7.15;57.54;100812.94;5058211;28;46375;-75
2022/12/10 12:55:33;;;;;;;;;15.50;15.50;;;;;7.13;57.57;100814.81;5037851;28;45566;-73
2022/12/10 12:58:15;;;;;;;;;26.00;21.00;;;;;7.06;57.47;100818.59;5056941;28;45367;-73
2022/12/10 13:00:46;;;;;;;;;24.25;21.25;;;;;7.14;57.89;100804.13;5056344;28;45257;-75
2022/12/10 13:03:37;;;;;;;;;23.25;20.50;;;;;7.25;57.78;100800.22;5056445;28;45327;-74
2022/12/10 13:06:28;;;;;;;;;25.50;22.50;;;;;7.25;56.71;100802.88;5056531;28;45218;-75
2022/12/10 13:08:58;;;;;;;;;29.25;23.25;;;;;7.16;57.37;100804.91;5056001;28;45341;-76
2022/12/10 13:11:34;;;;;;;;;26.25;24.25;;;;;7.17;57.06;100804.00;5038126;28;45464;-68
2022/12/10 13:14:10;;;;;;;;;30.00;25.50;;;;;7.22;57.30;100798.53;5054462;28;46399;-71
2022/12/10 13:16:45;;;;;;;;;3.75;1.00;;;;;7.31;57.13;100810.72;5044085;28;45417;-75
2022/12/10 13:19:25;;;;;;;;;24.50;24.50;;;;;7.31;57.59;100797.38;5061773;28;45399;-75
2022/12/10 13:21:50;;;;;;;;;29.25;25.50;;;;;7.38;57.15;100812.25;5038791;28;45504;-74
2022/12/10 13:24:20;;;;;;;;;27.00;23.75;;;;;7.26;56.98;100793.97;5056757;28;45548;-74
2022/12/10 13:27:11;;;;;;;;;30.25;26.00;;;;;7.19;57.24;100802.16;5059876;28;45495;-79
2022/12/10 13:29:48;;;;;;;;;21.00;21.00;;;;;7.17;57.41;100808.47;5055781;28;45380;-73
2022/12/10 13:32:31;;;;;;;;;30.25;26.00;;;;;7.09;57.80;100797.16;5064282;28;46328;-76
2022/12/10 13:35:08;;;;;;;;;22.00;21.25;;;;;7.15;57.99;100813.81;5056767;28;45323;-74
2022/12/10 13:37:54;;;;;;;;;25.25;25.25;;;;;7.09;57.58;100814.03;5055489;28;45453;-73
2022/12/10 13:46:21;;;;;;;;;26.00;21.75;;;;;6.82;58.39;100821.03;5055521;28;45893;-74
2022/12/10 13:48:51;;;;;;;;;29.25;23.50;;;;;6.79;58.12;100813.16;5055331;28;45604;-78
2022/12/10 13:51:29;;;;;;;;;28.00;25.50;;;;;6.81;58.30;100813.97;5055622;28;45491;-74
2022/12/10 13:54:02;;;;;;;;;29.25;27.75;;;;;6.78;58.50;100826.53;5055191;28;45292;-73
2022/12/10 13:56:46;;;;;;;;;26.50;26.50;;;;;6.67;58.18;100823.28;5055556;28;46311;-73
2022/12/10 13:59:38;;;;;;;;;30.25;27.00;;;;;6.74;58.24;100833.72;5055929;28;45215;-79
2022/12/10 14:02:24;;;;;;;;;23.25;20.50;;;;;6.72;58.39;100834.72;5055269;28;45319;-76
2022/12/10 14:05:11;;;;;;;;;25.00;22.50;;;;;6.78;58.35;100831.84;5055239;28;45644;-72
2022/12/10 14:07:38;;;;;;;;;23.00;23.00;;;;;6.82;58.72;100821.03;5035057;28;48156;-76
2022/12/10 14:10:14;;;;;;;;;25.75;22.75;;;;;6.94;57.78;100832.28;5035571;28;45518;-74
2022/12/10 14:12:42;;;;;;;;;25.50;22.00;;;;;7.14;57.82;100829.91;5055211;28;45541;-73
2022/12/10 14:15:17;;;;;;;;;31.25;26.50;;;;;7.38;57.21;100826.47;5054066;28;45628;-78
2022/12/10 14:17:45;;;;;;;;;26.75;25.25;;;;;7.64;56.24;100843.44;5054426;28;47294;-74
2022/12/10 14:20:22;;;;;;;;;24.00;22.25;;;;;7.84;55.90;100840.97;5054788;28;45380;-75
2022/12/10 14:23:32;;;;;;;;;27.50;22.75;;;;;8.01;55.69;100846.63;5055382;28;45481;-76
2022/12/10 14:25:45;;;;;;;;;21.00;20.50;;;;;8.14;54.84;100842.63;5039885;28;45700;-71
2022/12/10 14:28:14;;;;;;;;;25.25;23.00;;;;;8.25;55.34;100842.25;5054290;28;46039;-74
2022/12/10 14:30:44;;;;;;;;;22.75;21.50;;;;;8.50;54.29;100855.66;5036665;28;45549;-73
2022/12/10 14:33:14;;;;;;;;;22.25;21.50;;;;;8.59;54.43;100845.50;5066108;28;45477;-74
2022/12/10 14:35:46;;;;;;;;;21.25;19.50;;;;;8.84;53.40;100844.63;5054589;28;45473;-74
2022/12/10 14:38:20;;;;;;;;;25.00;23.25;;;;;8.91;52.34;100871.06;5054326;28;46150;-76
2022/12/10 14:40:46;;;;;;;;;25.75;24.00;;;;;8.69;52.96;100841.56;5054384;28;45442;-77
2022/12/10 14:43:20;;;;;;;;;31.50;26.00;;;;;8.51;53.77;100868.06;5054138;28;45355;-74
2022/12/10 14:45:55;;;;;;;;;31.25;27.75;;;;;8.31;53.86;100872.34;5054434;28;45411;-77
2022/12/10 14:48:21;;;;;;;;;26.50;24.25;;;;;8.05;54.60;100858.09;5054368;28;46302;-77
2022/12/10 14:50:47;;;;;;;;;25.25;20.25;;;;;7.97;55.18;100869.03;5036097;28;45589;-74
2022/12/10 14:53:16;;;;;;;;;29.00;24.25;;;;;7.87;55.24;100871.13;5054936;28;45549;-74
2022/12/10 14:55:52;;;;;;;;;27.25;23.25;;;;;7.72;55.75;100860.94;5037090;28;47052;-74
2022/12/10 14:58:39;;;;;;;;;30.00;27.75;;;;;7.57;55.80;100859.63;5035891;28;47308;-74
2022/12/10 15:01:05;;;;;;;;;26.00;24.75;;;;;7.38;56.43;100857.59;5053793;28;45453;-75
2022/12/10 15:03:40;;;;;;;;;28.75;23.75;;;;;7.33;56.51;100865.72;5036301;28;45404;-79
2022/12/10 15:06:08;;;;;;;;;26.00;23.75;;;;;7.06;56.46;100843.44;5036092;28;45517;-76
2022/12/10 15:08:34;;;;;;;;;20.25;20.25;;;;;6.97;57.45;100856.19;5035920;28;48458;-74
2022/12/10 15:11:02;;;;;;;;;22.00;20.25;;;;;6.79;58.00;100861.13;5054661;28;45241;-76
2022/12/10 15:13:44;;;;;;;;;26.25;22.50;;;;;6.32;58.76;100861.53;5052428;28;45487;-74
2022/12/10 15:16:18;;;;;;;;;29.75;26.00;;;;;5.80;59.58;100811.41;5054649;28;45505;-74
2022/12/10 15:18:45;;;;;;;;;26.50;23.50;;;;;6.07;60.17;100869.28;5037012;28;46370;-73
2022/12/10 15:21:22;;;;;;;;;27.75;27.00;;;;;5.99;60.21;100845.53;5057535;28;45466;-75
2022/12/10 15:23:49;;;;;;;;;28.75;28.75;;;;;6.04;60.56;100870.22;5058270;28;45517;-72
2022/12/10 15:26:17;;;;;;;;;29.00;24.25;;;;;5.93;59.91;100872.31;5039039;28;45910;-75
2022/12/10 15:28:42;;;;;;;;;29.25;29.25;;;;;5.81;61.01;100872.56;5039435;28;48214;-73
2022/12/10 15:31:20;;;;;;;;;25.25;23.25;;;;;5.75;60.84;100872.72;5061386;28;45290;-74
2022/12/10 15:34:12;;;;;;;;;24.50;24.00;;;;;5.69;60.76;100871.09;5051732;28;45162;-71
2022/12/10 15:36:54;;;;;;;;;22.75;22.75;;;;;5.58;61.61;100862.50;5055281;28;45383;-78
2022/12/10 15:39:22;;;;;;;;;26.25;24.00;;;;;5.53;61.53;100879.47;5061751;28;45481;-76
2022/12/10 15:41:51;;;;;;;;;28.75;25.00;;;;;5.48;61.61;100878.69;5057742;28;45403;-72
2022/12/10 15:44:29;;;;;;;;;27.00;22.75;;;;;5.42;61.69;100878.84;5056629;28;45474;-76
2022/12/10 15:47:09;;;;;;;;;21.75;19.75;;;;;5.39;62.07;100878.91;5055402;28;46903;-73
2022/12/10 15:49:34;;;;;;;;;23.50;20.50;;;;;5.43;62.31;100886.78;5056909;28;46522;-75
2022/12/10 15:52:00;;;;;;;;;23.00;21.75;;;;;5.45;61.82;100886.72;5057002;28;45371;-73
2022/12/10 15:54:34;;;;;;;;;28.25;24.00;;;;;5.42;61.76;100886.81;5057134;28;45427;-79
2022/12/10 15:57:00;;;;;;;;;27.50;23.75;;;;;5.29;62.15;100887.06;5049764;28;46813;-75
2022/12/10 15:59:25;;;;;;;;;30.00;26.25;;;;;5.23;62.19;100889.00;5056487;28;45317;-78
2022/12/10 16:01:51;;;;;;;;;23.50;22.25;;;;;4.94;62.44;100844.44;5038833;28;45419;-75
2022/12/10 16:04:16;;;;;;;;;25.75;24.00;;;;;5.14;62.57;100891.84;5056977;28;45375;-77
2022/12/10 16:06:42;;;;;;;;;25.50;22.50;;;;;5.14;62.57;100891.84;5019195;28;45469;-71
2022/12/10 16:09:09;;;;;;;;;30.75;28.25;;;;;4.89;62.69;100857.84;5056494;28;45890;-78
2022/12/10 16:11:34;;;;;;;;;23.25;23.25;;;;;5.12;63.14;100891.88;5039091;28;45472;-79
2022/12/10 16:14:00;;;;;;;;;32.25;21.00;;;;;5.08;63.04;100889.34;5038560;28;45497;-81
2022/12/10 16:16:26;;;;;;;;;20.00;19.25;;;;;5.17;62.98;100897.09;5056401;28;45652;-78
2022/12/10 16:18:52;;;;;;;;;31.25;26.00;;;;;5.12;62.70;100870.63;5038807;28;46482;-77
2022/12/10 16:21:17;;;;;;;;;30.75;29.25;;;;;5.18;62.59;100885.56;5056605;28;45363;-71
2022/12/10 16:23:43;;;;;;;;;28.25;26.00;;;;;5.11;62.95;100892.78;5058065;28;46111;-75
2022/12/10 16:26:20;;;;;;;;;27.25;26.75;;;;;5.04;62.95;100884.97;5041207;28;45528;-78
2022/12/10 16:28:46;;;;;;;;;26.00;25.25;;;;;5.11;63.02;100905.19;5060619;28;46312;-76
2022/12/10 16:31:16;;;;;;;;;24.75;24.75;;;;;5.10;63.09;100901.69;5049293;28;45728;-76
2022/12/10 16:33:42;;;;;;;;;31.50;27.00;;;;;5.03;63.13;100888.53;5025873;28;45531;-79
2022/12/10 16:36:09;;;;;;;;;27.00;27.00;;;;;4.95;63.00;100876.28;5036128;28;45398;-75
2022/12/10 16:38:34;;;;;;;;;36.50;30.75;;;;;5.05;63.45;100903.53;5035962;28;45638;-77
2022/12/10 16:41:01;;;;;;;;;27.50;25.75;;;;;5.09;63.39;100910.56;5035765;28;45899;-82
2022/12/10 16:43:28;;;;;;;;;27.50;24.75;;;;;4.95;63.57;100904.63;5034847;28;45586;-79